sensor_id;sensor_type;location;lat;lon;timestamp;temperature;humidity
8109;DHT22;4097;47.812;12.374;2022-11-20T00:01:27;6.90;99.90
8109;DHT22;4097;47.812;12.374;2022-11-20T00:03:57;6.90;99.90
8109;DHT22;4097;47.812;12.374;2022-11-20T00:06:26;6.90;99.90
8109;DHT22;4097;47.812;12.374;2022-11-20T00:08:54;6.80;99.90
8109;DHT22;4097;47.812;12.374;2022-11-20T00:11:24;6.80;99.90
8109;DHT22;4097;47.812;12.374;2022-11-20T00:13:53;6.80;99.90
8109;DHT22;4097;47.812;12.374;2022-11-20T00:16:22;6.80;99.90
8109;DHT22;4097;47.812;12.374;2022-11-20T00:18:50;6.80;99.90
8109;DHT22;4097;47.812;12.374;2022-11-20T00:21:18;6.80;99.90
8109;DHT22;4097;47.812;12.374;2022-11-20T00:23:45;6.80;99.90
8109;DHT22;4097;47.812;12.374;2022-11-20T00:26:14;6.80;99.90
8109;DHT22;4097;47.812;12.374;2022-11-20T00:28:43;6.80;99.90
8109;DHT22;4097;47.812;12.374;2022-11-20T00:31:12;6.80;99.90
8109;DHT22;4097;47.812;12.374;2022-11-20T00:33:39;6.80;99.90
8109;DHT22;4097;47.812;12.374;2022-11-20T00:36:08;6.80;99.90
8109;DHT22;4097;47.812;12.374;2022-11-20T00:38:36;6.80;99.90
8109;DHT22;4097;47.812;12.374;2022-11-20T00:41:05;6.80;99.90
8109;DHT22;4097;47.812;12.374;2022-11-20T00:43:32;6.80;99.90
8109;DHT22;4097;47.812;12.374;2022-11-20T00:46:04;6.90;99.90
8109;DHT22;4097;47.812;12.374;2022-11-20T00:48:31;6.80;99.90
8109;DHT22;4097;47.812;12.374;2022-11-20T00:50:59;6.80;99.90
8109;DHT22;4097;47.812;12.374;2022-11-20T00:53:26;6.80;99.90
8109;DHT22;4097;47.812;12.374;2022-11-20T00:55:54;6.80;99.90
8109;DHT22;4097;47.812;12.374;2022-11-20T00:58:21;6.90;99.90
8109;DHT22;4097;47.812;12.374;2022-11-20T01:00:51;6.90;99.90
8109;DHT22;4097;47.812;12.374;2022-11-20T01:03:20;6.90;99.90
8109;DHT22;4097;47.812;12.374;2022-11-20T01:05:46;6.90;99.90
8109;DHT22;4097;47.812;12.374;2022-11-20T01:08:13;6.80;99.90
8109;DHT22;4097;47.812;12.374;2022-11-20T01:10:40;6.80;99.90
8109;DHT22;4097;47.812;12.374;2022-11-20T01:13:07;6.80;99.90
8109;DHT22;4097;47.812;12.374;2022-11-20T01:15:51;6.90;99.90
8109;DHT22;4097;47.812;12.374;2022-11-20T01:18:23;6.80;99.90
8109;DHT22;4097;47.812;12.374;2022-11-20T01:20:51;6.80;99.90
8109;DHT22;4097;47.812;12.374;2022-11-20T01:23:18;6.80;99.90
8109;DHT22;4097;47.812;12.374;2022-11-20T01:25:45;6.80;99.90
8109;DHT22;4097;47.812;12.374;2022-11-20T01:28:12;6.80;99.90
8109;DHT22;4097;47.812;12.374;2022-11-20T01:30:39;6.80;99.90
8109;DHT22;4097;47.812;12.374;2022-11-20T01:33:06;6.80;99.90
8109;DHT22;4097;47.812;12.374;2022-11-20T01:35:34;6.80;99.90
8109;DHT22;4097;47.812;12.374;2022-11-20T01:38:01;6.80;99.90
8109;DHT22;4097;47.812;12.374;2022-11-20T01:40:28;6.80;99.90
8109;DHT22;4097;47.812;12.374;2022-11-20T01:43:09;6.80;99.90
8109;DHT22;4097;47.812;12.374;2022-11-20T01:46:04;6.80;99.90
8109;DHT22;4097;47.812;12.374;2022-11-20T01:48:35;6.70;99.90
8109;DHT22;4097;47.812;12.374;2022-11-20T01:51:08;6.70;99.90
8109;DHT22;4097;47.812;12.374;2022-11-20T01:53:39;6.70;99.90
8109;DHT22;4097;47.812;12.374;2022-11-20T01:56:09;6.70;99.90
8109;DHT22;4097;47.812;12.374;2022-11-20T01:58:41;6.70;99.90
8109;DHT22;4097;47.812;12.374;2022-11-20T02:01:08;6.70;99.90
8109;DHT22;4097;47.812;12.374;2022-11-20T02:03:36;6.70;99.90
8109;DHT22;4097;47.812;12.374;2022-11-20T02:06:10;6.70;99.90
8109;DHT22;4097;47.812;12.374;2022-11-20T02:08:39;6.60;99.90
8109;DHT22;4097;47.812;12.374;2022-11-20T02:11:06;6.70;99.90
8109;DHT22;4097;47.812;12.374;2022-11-20T02:13:33;6.70;99.90
8109;DHT22;4097;47.812;12.374;2022-11-20T02:16:11;6.70;99.90
8109;DHT22;4097;47.812;12.374;2022-11-20T02:18:39;6.70;99.90
8109;DHT22;4097;47.812;12.374;2022-11-20T02:21:30;6.70;99.90
8109;DHT22;4097;47.812;12.374;2022-11-20T02:24:09;6.70;99.90
8109;DHT22;4097;47.812;12.374;2022-11-20T02:26:41;6.70;99.90
8109;DHT22;4097;47.812;12.374;2022-11-20T02:29:09;6.70;99.90
8109;DHT22;4097;47.812;12.374;2022-11-20T02:31:41;6.70;99.90
8109;DHT22;4097;47.812;12.374;2022-11-20T02:34:09;6.70;99.90
8109;DHT22;4097;47.812;12.374;2022-11-20T02:36:38;6.70;99.90
8109;DHT22;4097;47.812;12.374;2022-11-20T02:39:07;6.60;99.90
8109;DHT22;4097;47.812;12.374;2022-11-20T02:41:37;6.60;99.90
8109;DHT22;4097;47.812;12.374;2022-11-20T02:44:05;6.60;99.90
8109;DHT22;4097;47.812;12.374;2022-11-20T02:46:32;6.50;99.90
8109;DHT22;4097;47.812;12.374;2022-11-20T02:49:01;6.50;99.90
8109;DHT22;4097;47.812;12.374;2022-11-20T02:51:28;6.50;99.90
8109;DHT22;4097;47.812;12.374;2022-11-20T02:53:55;6.50;99.90
8109;DHT22;4097;47.812;12.374;2022-11-20T02:56:23;6.50;99.90
8109;DHT22;4097;47.812;12.374;2022-11-20T02:58:51;6.50;99.90
8109;DHT22;4097;47.812;12.374;2022-11-20T03:01:18;6.50;99.90
8109;DHT22;4097;47.812;12.374;2022-11-20T03:03:45;6.50;99.90
8109;DHT22;4097;47.812;12.374;2022-11-20T03:06:14;6.50;99.90
8109;DHT22;4097;47.812;12.374;2022-11-20T03:08:41;6.50;99.90
8109;DHT22;4097;47.812;12.374;2022-11-20T03:11:08;6.50;99.90
8109;DHT22;4097;47.812;12.374;2022-11-20T03:13:37;6.60;99.90
8109;DHT22;4097;47.812;12.374;2022-11-20T03:16:09;6.60;99.90
8109;DHT22;4097;47.812;12.374;2022-11-20T03:18:37;6.60;99.90
8109;DHT22;4097;47.812;12.374;2022-11-20T03:21:04;6.60;99.90
8109;DHT22;4097;47.812;12.374;2022-11-20T03:23:32;6.60;99.90
8109;DHT22;4097;47.812;12.374;2022-11-20T03:26:10;6.60;99.90
8109;DHT22;4097;47.812;12.374;2022-11-20T03:28:39;6.60;99.90
8109;DHT22;4097;47.812;12.374;2022-11-20T03:31:11;6.60;99.90
8109;DHT22;4097;47.812;12.374;2022-11-20T03:33:39;6.60;99.90
8109;DHT22;4097;47.812;12.374;2022-11-20T03:36:07;6.60;99.90
8109;DHT22;4097;47.812;12.374;2022-11-20T03:38:35;6.60;99.90
8109;DHT22;4097;47.812;12.374;2022-11-20T03:41:03;6.60;99.90
8109;DHT22;4097;47.812;12.374;2022-11-20T03:43:31;6.60;99.90
8109;DHT22;4097;47.812;12.374;2022-11-20T03:45:59;6.60;99.90
8109;DHT22;4097;47.812;12.374;2022-11-20T03:48:27;6.60;99.90
8109;DHT22;4097;47.812;12.374;2022-11-20T03:51:06;6.60;99.90
8109;DHT22;4097;47.812;12.374;2022-11-20T03:53:33;6.50;99.90
8109;DHT22;4097;47.812;12.374;2022-11-20T03:56:01;6.50;99.90
8109;DHT22;4097;47.812;12.374;2022-11-20T03:58:28;6.50;99.90
8109;DHT22;4097;47.812;12.374;2022-11-20T04:00:55;6.50;99.90
8109;DHT22;4097;47.812;12.374;2022-11-20T04:03:23;6.50;99.90
8109;DHT22;4097;47.812;12.374;2022-11-20T04:05:50;6.50;99.90
8109;DHT22;4097;47.812;12.374;2022-11-20T04:08:17;6.50;99.90
8109;DHT22;4097;47.812;12.374;2022-11-20T04:10:44;6.50;99.90
8109;DHT22;4097;47.812;12.374;2022-11-20T04:13:11;6.50;99.90
8109;DHT22;4097;47.812;12.374;2022-11-20T04:15:38;6.50;99.90
8109;DHT22;4097;47.812;12.374;2022-11-20T04:18:05;6.50;99.90
8109;DHT22;4097;47.812;12.374;2022-11-20T04:20:33;6.50;99.90
8109;DHT22;4097;47.812;12.374;2022-11-20T04:23:01;6.50;99.90
8109;DHT22;4097;47.812;12.374;2022-11-20T04:25:28;6.50;99.90
8109;DHT22;4097;47.812;12.374;2022-11-20T04:27:55;6.50;99.90
8109;DHT22;4097;47.812;12.374;2022-11-20T04:30:22;6.50;99.90
8109;DHT22;4097;47.812;12.374;2022-11-20T04:32:49;6.50;99.90
8109;DHT22;4097;47.812;12.374;2022-11-20T04:35:16;6.50;99.90
8109;DHT22;4097;47.812;12.374;2022-11-20T04:37:44;6.40;99.90
8109;DHT22;4097;47.812;12.374;2022-11-20T04:40:12;6.40;99.90
8109;DHT22;4097;47.812;12.374;2022-11-20T04:42:39;6.40;99.90
8109;DHT22;4097;47.812;12.374;2022-11-20T04:45:06;6.40;99.90
8109;DHT22;4097;47.812;12.374;2022-11-20T04:47:33;6.30;99.90
8109;DHT22;4097;47.812;12.374;2022-11-20T04:50:00;6.40;99.90
8109;DHT22;4097;47.812;12.374;2022-11-20T04:52:27;6.30;99.90
8109;DHT22;4097;47.812;12.374;2022-11-20T04:54:55;6.30;99.90
8109;DHT22;4097;47.812;12.374;2022-11-20T04:57:22;6.30;99.90
8109;DHT22;4097;47.812;12.374;2022-11-20T04:59:49;6.30;99.90
8109;DHT22;4097;47.812;12.374;2022-11-20T05:02:16;6.30;99.90
8109;DHT22;4097;47.812;12.374;2022-11-20T05:04:43;6.30;99.90
8109;DHT22;4097;47.812;12.374;2022-11-20T05:07:10;6.30;99.90
8109;DHT22;4097;47.812;12.374;2022-11-20T05:09:37;6.30;99.90
8109;DHT22;4097;47.812;12.374;2022-11-20T05:12:07;6.30;99.90
8109;DHT22;4097;47.812;12.374;2022-11-20T05:14:34;6.20;99.90
8109;DHT22;4097;47.812;12.374;2022-11-20T05:17:03;6.20;99.90
8109;DHT22;4097;47.812;12.374;2022-11-20T05:19:30;6.30;99.90
8109;DHT22;4097;47.812;12.374;2022-11-20T05:21:57;6.30;99.90
8109;DHT22;4097;47.812;12.374;2022-11-20T05:24:24;6.20;99.90
8109;DHT22;4097;47.812;12.374;2022-11-20T05:26:51;6.20;99.90
8109;DHT22;4097;47.812;12.374;2022-11-20T05:29:19;6.30;99.90
8109;DHT22;4097;47.812;12.374;2022-11-20T05:31:47;6.30;99.90
8109;DHT22;4097;47.812;12.374;2022-11-20T05:34:14;6.30;99.90
8109;DHT22;4097;47.812;12.374;2022-11-20T05:36:41;6.30;99.90
8109;DHT22;4097;47.812;12.374;2022-11-20T05:39:08;6.30;99.90
8109;DHT22;4097;47.812;12.374;2022-11-20T05:41:35;6.30;99.90
8109;DHT22;4097;47.812;12.374;2022-11-20T05:44:02;6.30;99.90
8109;DHT22;4097;47.812;12.374;2022-11-20T05:46:31;6.30;99.90
8109;DHT22;4097;47.812;12.374;2022-11-20T05:48:58;6.30;99.90
8109;DHT22;4097;47.812;12.374;2022-11-20T05:51:25;6.30;99.90
8109;DHT22;4097;47.812;12.374;2022-11-20T05:53:52;6.30;99.90
8109;DHT22;4097;47.812;12.374;2022-11-20T05:56:20;6.40;99.90
8109;DHT22;4097;47.812;12.374;2022-11-20T05:58:48;6.40;99.90
8109;DHT22;4097;47.812;12.374;2022-11-20T06:01:17;6.40;99.90
8109;DHT22;4097;47.812;12.374;2022-11-20T06:03:47;6.40;99.90
8109;DHT22;4097;47.812;12.374;2022-11-20T06:06:28;6.40;99.90
8109;DHT22;4097;47.812;12.374;2022-11-20T06:09:22;6.40;99.90
8109;DHT22;4097;47.812;12.374;2022-11-20T06:11:49;6.40;99.90
8109;DHT22;4097;47.812;12.374;2022-11-20T06:14:17;6.40;99.90
8109;DHT22;4097;47.812;12.374;2022-11-20T06:16:44;6.40;99.90
8109;DHT22;4097;47.812;12.374;2022-11-20T06:19:12;6.40;99.90
8109;DHT22;4097;47.812;12.374;2022-11-20T06:21:40;6.40;99.90
8109;DHT22;4097;47.812;12.374;2022-11-20T06:24:09;6.40;99.90
8109;DHT22;4097;47.812;12.374;2022-11-20T06:26:36;6.40;99.90
8109;DHT22;4097;47.812;12.374;2022-11-20T06:29:04;6.40;99.90
8109;DHT22;4097;47.812;12.374;2022-11-20T06:31:31;6.40;99.90
8109;DHT22;4097;47.812;12.374;2022-11-20T06:34:03;6.50;99.90
8109;DHT22;4097;47.812;12.374;2022-11-20T06:36:35;6.50;99.90
8109;DHT22;4097;47.812;12.374;2022-11-20T06:39:05;6.50;99.90
8109;DHT22;4097;47.812;12.374;2022-11-20T06:41:33;6.50;99.90
8109;DHT22;4097;47.812;12.374;2022-11-20T06:44:05;6.50;99.90
8109;DHT22;4097;47.812;12.374;2022-11-20T06:46:33;6.50;99.90
8109;DHT22;4097;47.812;12.374;2022-11-20T06:49:00;6.60;99.90
8109;DHT22;4097;47.812;12.374;2022-11-20T06:51:28;6.50;99.90
8109;DHT22;4097;47.812;12.374;2022-11-20T06:53:56;6.50;99.90
8109;DHT22;4097;47.812;12.374;2022-11-20T06:56:23;6.50;99.90
8109;DHT22;4097;47.812;12.374;2022-11-20T06:58:50;6.50;99.90
8109;DHT22;4097;47.812;12.374;2022-11-20T07:01:17;6.60;99.90
8109;DHT22;4097;47.812;12.374;2022-11-20T07:03:44;6.60;99.90
8109;DHT22;4097;47.812;12.374;2022-11-20T07:06:12;6.60;99.90
8109;DHT22;4097;47.812;12.374;2022-11-20T07:08:39;6.60;99.90
8109;DHT22;4097;47.812;12.374;2022-11-20T07:11:07;6.60;99.90
8109;DHT22;4097;47.812;12.374;2022-11-20T07:13:35;6.60;99.90
8109;DHT22;4097;47.812;12.374;2022-11-20T07:16:04;6.50;99.90
8109;DHT22;4097;47.812;12.374;2022-11-20T07:18:35;6.50;99.90
8109;DHT22;4097;47.812;12.374;2022-11-20T07:21:02;6.50;99.90
8109;DHT22;4097;47.812;12.374;2022-11-20T07:23:29;6.60;99.90
8109;DHT22;4097;47.812;12.374;2022-11-20T07:25:56;6.60;99.90
8109;DHT22;4097;47.812;12.374;2022-11-20T07:28:24;6.60;99.90
8109;DHT22;4097;47.812;12.374;2022-11-20T07:30:52;6.60;99.90
8109;DHT22;4097;47.812;12.374;2022-11-20T07:33:20;6.50;99.90
8109;DHT22;4097;47.812;12.374;2022-11-20T07:35:46;6.60;99.90
8109;DHT22;4097;47.812;12.374;2022-11-20T07:38:13;6.50;99.90
8109;DHT22;4097;47.812;12.374;2022-11-20T07:40:42;6.50;99.90
8109;DHT22;4097;47.812;12.374;2022-11-20T07:43:09;6.60;99.90
8109;DHT22;4097;47.812;12.374;2022-11-20T07:45:37;6.70;99.90
8109;DHT22;4097;47.812;12.374;2022-11-20T07:48:05;6.60;99.90
8109;DHT22;4097;47.812;12.374;2022-11-20T07:50:32;6.60;99.90
8109;DHT22;4097;47.812;12.374;2022-11-20T07:53:03;6.60;99.90
8109;DHT22;4097;47.812;12.374;2022-11-20T07:55:30;6.50;99.90
8109;DHT22;4097;47.812;12.374;2022-11-20T07:57:57;6.60;99.90
8109;DHT22;4097;47.812;12.374;2022-11-20T08:00:26;6.60;99.90
8109;DHT22;4097;47.812;12.374;2022-11-20T08:02:54;6.60;99.90
8109;DHT22;4097;47.812;12.374;2022-11-20T08:05:21;6.70;99.90
8109;DHT22;4097;47.812;12.374;2022-11-20T08:07:49;6.60;99.90
8109;DHT22;4097;47.812;12.374;2022-11-20T08:10:16;6.60;99.90
8109;DHT22;4097;47.812;12.374;2022-11-20T08:12:47;6.60;99.90
8109;DHT22;4097;47.812;12.374;2022-11-20T08:15:31;6.60;99.90
8109;DHT22;4097;47.812;12.374;2022-11-20T08:18:04;6.60;99.90
8109;DHT22;4097;47.812;12.374;2022-11-20T08:20:33;6.60;99.90
8109;DHT22;4097;47.812;12.374;2022-11-20T08:23:00;6.50;99.90
8109;DHT22;4097;47.812;12.374;2022-11-20T08:25:28;6.50;99.90
8109;DHT22;4097;47.812;12.374;2022-11-20T08:27:57;6.60;99.90
8109;DHT22;4097;47.812;12.374;2022-11-20T08:30:24;6.60;99.80
8109;DHT22;4097;47.812;12.374;2022-11-20T08:32:51;6.60;99.60
8109;DHT22;4097;47.812;12.374;2022-11-20T08:35:20;6.60;99.60
8109;DHT22;4097;47.812;12.374;2022-11-20T08:37:47;6.70;99.40
8109;DHT22;4097;47.812;12.374;2022-11-20T08:40:15;6.70;98.90
8109;DHT22;4097;47.812;12.374;2022-11-20T08:42:48;6.70;98.70
8109;DHT22;4097;47.812;12.374;2022-11-20T08:45:16;6.80;98.50
8109;DHT22;4097;47.812;12.374;2022-11-20T08:47:44;6.90;98.40
8109;DHT22;4097;47.812;12.374;2022-11-20T08:50:13;6.90;98.10
8109;DHT22;4097;47.812;12.374;2022-11-20T08:52:41;7.00;97.60
8109;DHT22;4097;47.812;12.374;2022-11-20T08:55:09;7.10;97.50
8109;DHT22;4097;47.812;12.374;2022-11-20T08:57:37;7.20;97.50
8109;DHT22;4097;47.812;12.374;2022-11-20T09:00:05;7.20;97.00
8109;DHT22;4097;47.812;12.374;2022-11-20T09:02:33;7.30;97.00
8109;DHT22;4097;47.812;12.374;2022-11-20T09:05:00;7.30;96.70
8109;DHT22;4097;47.812;12.374;2022-11-20T09:07:28;7.30;96.50
8109;DHT22;4097;47.812;12.374;2022-11-20T09:09:57;7.30;96.50
8109;DHT22;4097;47.812;12.374;2022-11-20T09:12:24;7.40;96.50
8109;DHT22;4097;47.812;12.374;2022-11-20T09:14:51;7.50;96.80
8109;DHT22;4097;47.812;12.374;2022-11-20T09:17:18;7.60;96.70
8109;DHT22;4097;47.812;12.374;2022-11-20T09:19:46;7.60;96.10
8109;DHT22;4097;47.812;12.374;2022-11-20T09:22:13;7.80;96.00
8109;DHT22;4097;47.812;12.374;2022-11-20T09:24:40;7.90;95.80
8109;DHT22;4097;47.812;12.374;2022-11-20T09:27:09;8.00;96.00
8109;DHT22;4097;47.812;12.374;2022-11-20T09:29:36;8.20;95.80
8109;DHT22;4097;47.812;12.374;2022-11-20T09:32:04;8.30;95.70
8109;DHT22;4097;47.812;12.374;2022-11-20T09:34:31;8.30;95.00
8109;DHT22;4097;47.812;12.374;2022-11-20T09:36:58;8.30;94.50
8109;DHT22;4097;47.812;12.374;2022-11-20T09:39:25;8.40;95.10
8109;DHT22;4097;47.812;12.374;2022-11-20T09:42:10;8.40;94.30
8109;DHT22;4097;47.812;12.374;2022-11-20T09:44:50;8.40;94.50
8109;DHT22;4097;47.812;12.374;2022-11-20T09:47:26;8.40;94.60
8109;DHT22;4097;47.812;12.374;2022-11-20T09:50:10;8.40;93.90
8109;DHT22;4097;47.812;12.374;2022-11-20T09:52:46;8.40;94.20
8109;DHT22;4097;47.812;12.374;2022-11-20T09:55:17;8.40;93.60
8109;DHT22;4097;47.812;12.374;2022-11-20T09:57:48;8.30;93.60
8109;DHT22;4097;47.812;12.374;2022-11-20T10:00:18;8.30;93.30
8109;DHT22;4097;47.812;12.374;2022-11-20T10:02:49;8.20;93.20
8109;DHT22;4097;47.812;12.374;2022-11-20T10:05:24;8.10;93.20
8109;DHT22;4097;47.812;12.374;2022-11-20T10:07:55;8.10;93.30
8109;DHT22;4097;47.812;12.374;2022-11-20T10:10:31;8.10;93.70
8109;DHT22;4097;47.812;12.374;2022-11-20T10:13:20;8.20;93.40
8109;DHT22;4097;47.812;12.374;2022-11-20T10:16:00;8.20;93.90
8109;DHT22;4097;47.812;12.374;2022-11-20T10:18:41;8.30;93.10
8109;DHT22;4097;47.812;12.374;2022-11-20T10:21:14;8.40;93.30
8109;DHT22;4097;47.812;12.374;2022-11-20T10:23:55;8.60;93.40
8109;DHT22;4097;47.812;12.374;2022-11-20T10:26:31;8.70;93.50
8109;DHT22;4097;47.812;12.374;2022-11-20T10:29:16;8.80;93.30
8109;DHT22;4097;47.812;12.374;2022-11-20T10:31:45;8.80;93.00
8109;DHT22;4097;47.812;12.374;2022-11-20T10:34:20;8.90;93.20
8109;DHT22;4097;47.812;12.374;2022-11-20T10:36:53;8.80;92.50
8109;DHT22;4097;47.812;12.374;2022-11-20T10:39:27;8.80;93.00
8109;DHT22;4097;47.812;12.374;2022-11-20T10:41:56;8.70;93.00
8109;DHT22;4097;47.812;12.374;2022-11-20T10:44:28;8.80;92.70
8109;DHT22;4097;47.812;12.374;2022-11-20T10:47:14;8.80;93.00
8109;DHT22;4097;47.812;12.374;2022-11-20T10:49:54;8.80;92.30
8109;DHT22;4097;47.812;12.374;2022-11-20T10:52:31;8.80;92.50
8109;DHT22;4097;47.812;12.374;2022-11-20T10:55:07;8.80;92.50
8109;DHT22;4097;47.812;12.374;2022-11-20T10:57:47;8.90;92.40
8109;DHT22;4097;47.812;12.374;2022-11-20T11:00:17;8.90;92.90
8109;DHT22;4097;47.812;12.374;2022-11-20T11:02:47;8.90;92.00
8109;DHT22;4097;47.812;12.374;2022-11-20T11:05:31;8.90;91.90
8109;DHT22;4097;47.812;12.374;2022-11-20T11:08:03;8.90;91.40
8109;DHT22;4097;47.812;12.374;2022-11-20T11:10:40;8.90;91.90
8109;DHT22;4097;47.812;12.374;2022-11-20T11:13:19;8.90;91.20
8109;DHT22;4097;47.812;12.374;2022-11-20T11:15:48;9.00;91.40
8109;DHT22;4097;47.812;12.374;2022-11-20T11:18:27;9.00;91.50
8109;DHT22;4097;47.812;12.374;2022-11-20T11:20:57;9.00;91.50
8109;DHT22;4097;47.812;12.374;2022-11-20T11:23:32;9.00;91.40
8109;DHT22;4097;47.812;12.374;2022-11-20T11:26:06;9.10;91.60
8109;DHT22;4097;47.812;12.374;2022-11-20T11:28:33;9.20;91.40
8109;DHT22;4097;47.812;12.374;2022-11-20T11:31:03;9.20;91.90
8109;DHT22;4097;47.812;12.374;2022-11-20T11:33:32;9.30;91.80
8109;DHT22;4097;47.812;12.374;2022-11-20T11:36:17;9.30;91.20
8109;DHT22;4097;47.812;12.374;2022-11-20T11:38:45;9.30;90.90
8109;DHT22;4097;47.812;12.374;2022-11-20T11:41:16;9.30;91.30
8109;DHT22;4097;47.812;12.374;2022-11-20T11:43:51;9.30;91.10
8109;DHT22;4097;47.812;12.374;2022-11-20T11:46:39;9.40;91.40
8109;DHT22;4097;47.812;12.374;2022-11-20T11:49:17;9.40;91.10
8109;DHT22;4097;47.812;12.374;2022-11-20T11:51:59;9.60;90.70
8109;DHT22;4097;47.812;12.374;2022-11-20T11:54:31;9.60;90.60
8109;DHT22;4097;47.812;12.374;2022-11-20T11:57:01;9.60;91.00
8109;DHT22;4097;47.812;12.374;2022-11-20T11:59:43;9.70;91.00
8109;DHT22;4097;47.812;12.374;2022-11-20T12:02:28;9.60;90.70
8109;DHT22;4097;47.812;12.374;2022-11-20T12:04:59;9.60;91.10
8109;DHT22;4097;47.812;12.374;2022-11-20T12:07:38;9.60;90.60
8109;DHT22;4097;47.812;12.374;2022-11-20T12:10:21;9.70;91.00
8109;DHT22;4097;47.812;12.374;2022-11-20T12:12:54;9.60;90.70
8109;DHT22;4097;47.812;12.374;2022-11-20T12:15:28;9.60;90.30
8109;DHT22;4097;47.812;12.374;2022-11-20T12:17:57;9.60;90.30
8109;DHT22;4097;47.812;12.374;2022-11-20T12:20:29;9.70;90.40
8109;DHT22;4097;47.812;12.374;2022-11-20T12:23:08;9.60;90.50
8109;DHT22;4097;47.812;12.374;2022-11-20T12:25:36;9.70;90.50
8109;DHT22;4097;47.812;12.374;2022-11-20T12:31:38;9.60;90.30
8109;DHT22;4097;47.812;12.374;2022-11-20T12:34:32;9.70;90.60
8109;DHT22;4097;47.812;12.374;2022-11-20T12:37:10;9.60;90.30
8109;DHT22;4097;47.812;12.374;2022-11-20T12:39:50;9.70;90.70
8109;DHT22;4097;47.812;12.374;2022-11-20T12:42:39;9.80;91.20
8109;DHT22;4097;47.812;12.374;2022-11-20T12:45:46;9.70;91.00
8109;DHT22;4097;47.812;12.374;2022-11-20T12:51:37;9.70;90.30
8109;DHT22;4097;47.812;12.374;2022-11-20T12:54:30;9.70;90.40
8109;DHT22;4097;47.812;12.374;2022-11-20T12:57:08;9.70;90.50
8109;DHT22;4097;47.812;12.374;2022-11-20T13:00:01;9.60;90.10
8109;DHT22;4097;47.812;12.374;2022-11-20T13:02:35;9.60;90.30
8109;DHT22;4097;47.812;12.374;2022-11-20T13:05:19;9.50;90.40
8109;DHT22;4097;47.812;12.374;2022-11-20T13:07:51;9.50;90.60
8109;DHT22;4097;47.812;12.374;2022-11-20T13:10:23;9.40;90.50
8109;DHT22;4097;47.812;12.374;2022-11-20T13:12:56;9.40;90.80
8109;DHT22;4097;47.812;12.374;2022-11-20T13:15:35;9.40;91.10
8109;DHT22;4097;47.812;12.374;2022-11-20T13:18:08;9.40;90.80
8109;DHT22;4097;47.812;12.374;2022-11-20T13:20:36;9.40;91.20
8109;DHT22;4097;47.812;12.374;2022-11-20T13:23:08;9.40;90.80
8109;DHT22;4097;47.812;12.374;2022-11-20T13:25:37;9.30;90.50
8109;DHT22;4097;47.812;12.374;2022-11-20T13:28:25;9.30;90.80
8109;DHT22;4097;47.812;12.374;2022-11-20T13:30:53;9.30;90.70
8109;DHT22;4097;47.812;12.374;2022-11-20T13:33:25;9.40;90.80
8109;DHT22;4097;47.812;12.374;2022-11-20T13:35:59;9.30;90.70
8109;DHT22;4097;47.812;12.374;2022-11-20T13:38:39;9.40;91.00
8109;DHT22;4097;47.812;12.374;2022-11-20T13:41:08;9.30;90.60
8109;DHT22;4097;47.812;12.374;2022-11-20T13:43:51;9.30;90.90
8109;DHT22;4097;47.812;12.374;2022-11-20T13:46:19;9.30;90.70
8109;DHT22;4097;47.812;12.374;2022-11-20T13:48:51;9.30;90.60
8109;DHT22;4097;47.812;12.374;2022-11-20T13:51:31;9.30;90.60
8109;DHT22;4097;47.812;12.374;2022-11-20T13:54:25;9.20;90.50
8109;DHT22;4097;47.812;12.374;2022-11-20T13:57:04;9.20;90.40
8109;DHT22;4097;47.812;12.374;2022-11-20T13:59:43;9.20;90.60
8109;DHT22;4097;47.812;12.374;2022-11-20T14:02:14;9.20;90.60
8109;DHT22;4097;47.812;12.374;2022-11-20T14:04:45;9.10;90.60
8109;DHT22;4097;47.812;12.374;2022-11-20T14:07:16;9.10;90.20
8109;DHT22;4097;47.812;12.374;2022-11-20T14:09:51;9.10;90.30
8109;DHT22;4097;47.812;12.374;2022-11-20T14:12:21;9.00;90.50
8109;DHT22;4097;47.812;12.374;2022-11-20T14:14:50;9.00;90.90
8109;DHT22;4097;47.812;12.374;2022-11-20T14:17:19;9.00;90.80
8109;DHT22;4097;47.812;12.374;2022-11-20T14:19:47;9.00;91.00
8109;DHT22;4097;47.812;12.374;2022-11-20T14:22:18;9.00;91.40
8109;DHT22;4097;47.812;12.374;2022-11-20T14:24:46;8.90;91.60
8109;DHT22;4097;47.812;12.374;2022-11-20T14:27:26;8.90;91.90
8109;DHT22;4097;47.812;12.374;2022-11-20T14:29:53;8.80;92.40
8109;DHT22;4097;47.812;12.374;2022-11-20T14:32:25;8.60;92.80
8109;DHT22;4097;47.812;12.374;2022-11-20T14:34:54;8.50;93.30
8109;DHT22;4097;47.812;12.374;2022-11-20T14:37:26;8.40;93.80
8109;DHT22;4097;47.812;12.374;2022-11-20T14:39:55;8.40;94.10
8109;DHT22;4097;47.812;12.374;2022-11-20T14:42:26;8.40;94.10
8109;DHT22;4097;47.812;12.374;2022-11-20T14:44:55;8.40;94.20
8109;DHT22;4097;47.812;12.374;2022-11-20T14:47:25;8.20;94.40
8109;DHT22;4097;47.812;12.374;2022-11-20T14:49:53;8.20;95.00
8109;DHT22;4097;47.812;12.374;2022-11-20T14:52:22;8.20;95.50
8109;DHT22;4097;47.812;12.374;2022-11-20T14:54:51;8.20;95.80
8109;DHT22;4097;47.812;12.374;2022-11-20T14:57:25;8.20;96.10
8109;DHT22;4097;47.812;12.374;2022-11-20T15:00:05;8.20;95.90
8109;DHT22;4097;47.812;12.374;2022-11-20T15:02:33;8.10;96.10
8109;DHT22;4097;47.812;12.374;2022-11-20T15:05:01;8.10;96.40
8109;DHT22;4097;47.812;12.374;2022-11-20T15:07:30;8.10;96.60
8109;DHT22;4097;47.812;12.374;2022-11-20T15:10:03;8.10;96.20
8109;DHT22;4097;47.812;12.374;2022-11-20T15:12:33;8.10;96.40
8109;DHT22;4097;47.812;12.374;2022-11-20T15:15:00;8.10;96.30
8109;DHT22;4097;47.812;12.374;2022-11-20T15:17:29;8.10;96.50
8109;DHT22;4097;47.812;12.374;2022-11-20T15:19:56;8.00;95.90
8109;DHT22;4097;47.812;12.374;2022-11-20T15:22:24;8.00;95.60
8109;DHT22;4097;47.812;12.374;2022-11-20T15:24:50;8.00;96.00
8109;DHT22;4097;47.812;12.374;2022-11-20T15:27:17;8.00;96.00
8109;DHT22;4097;47.812;12.374;2022-11-20T15:29:47;7.90;95.90
8109;DHT22;4097;47.812;12.374;2022-11-20T15:32:14;7.90;96.70
8109;DHT22;4097;47.812;12.374;2022-11-20T15:34:42;8.00;96.80
8109;DHT22;4097;47.812;12.374;2022-11-20T15:37:08;7.90;96.30
8109;DHT22;4097;47.812;12.374;2022-11-20T15:39:35;7.90;97.00
8109;DHT22;4097;47.812;12.374;2022-11-20T15:42:02;7.90;96.70
8109;DHT22;4097;47.812;12.374;2022-11-20T15:44:29;7.90;97.10
8109;DHT22;4097;47.812;12.374;2022-11-20T15:46:57;7.80;97.50
8109;DHT22;4097;47.812;12.374;2022-11-20T15:49:24;7.80;97.30
8109;DHT22;4097;47.812;12.374;2022-11-20T15:51:51;7.80;97.70
8109;DHT22;4097;47.812;12.374;2022-11-20T15:54:22;7.80;97.80
8109;DHT22;4097;47.812;12.374;2022-11-20T15:56:50;7.80;97.90
8109;DHT22;4097;47.812;12.374;2022-11-20T15:59:18;7.80;98.10
8109;DHT22;4097;47.812;12.374;2022-11-20T16:01:47;7.70;98.30
8109;DHT22;4097;47.812;12.374;2022-11-20T16:04:16;7.70;98.40
8109;DHT22;4097;47.812;12.374;2022-11-20T16:06:43;7.70;97.90
8109;DHT22;4097;47.812;12.374;2022-11-20T16:09:10;7.60;97.80
8109;DHT22;4097;47.812;12.374;2022-11-20T16:11:37;7.70;97.80
8109;DHT22;4097;47.812;12.374;2022-11-20T16:14:05;7.70;98.10
8109;DHT22;4097;47.812;12.374;2022-11-20T16:16:49;7.70;98.40
8109;DHT22;4097;47.812;12.374;2022-11-20T16:19:18;7.70;98.40
8109;DHT22;4097;47.812;12.374;2022-11-20T16:21:45;7.70;98.30
8109;DHT22;4097;47.812;12.374;2022-11-20T16:24:13;7.70;98.30
8109;DHT22;4097;47.812;12.374;2022-11-20T16:26:41;7.70;98.30
8109;DHT22;4097;47.812;12.374;2022-11-20T16:29:08;7.70;98.10
8109;DHT22;4097;47.812;12.374;2022-11-20T16:31:35;7.70;98.10